createdAt,value
2023-04-25T00:01:41.251Z,2.50
2023-04-25T00:04:11.023Z,2.78
2023-04-25T00:06:41.516Z,2.95
2023-04-25T00:09:12.294Z,2.83
2023-04-25T00:11:43.259Z,2.65
2023-04-25T00:14:14.088Z,2.47
2023-04-25T00:16:45.316Z,2.63
2023-04-25T00:19:14.892Z,2.60
2023-04-25T00:21:47.553Z,2.67
2023-04-25T00:24:16.910Z,2.92
2023-04-25T00:26:47.262Z,3.27
2023-04-25T00:29:18.164Z,3.00
2023-04-25T00:31:47.970Z,2.88
2023-04-25T00:34:17.322Z,4.10
2023-04-25T00:36:46.987Z,4.38
2023-04-25T00:39:16.342Z,5.05
2023-04-25T00:41:47.794Z,3.88
2023-04-25T00:44:19.621Z,4.63
2023-04-25T00:46:51.106Z,5.10
2023-04-25T00:49:20.473Z,4.65
2023-04-25T00:51:50.672Z,5.00
2023-04-25T00:54:20.071Z,5.38
2023-04-25T00:56:50.668Z,5.57
2023-04-25T00:59:22.167Z,5.85
2023-04-25T01:01:52.214Z,6.28
2023-04-25T01:04:21.926Z,4.95
2023-04-25T01:06:52.368Z,4.77
2023-04-25T01:09:22.274Z,4.60
2023-04-25T01:11:52.426Z,5.00
2023-04-25T01:14:23.342Z,5.43
2023-04-25T01:16:54.383Z,4.78
2023-04-25T01:19:23.900Z,5.25
2023-04-25T01:21:55.304Z,5.57
2023-04-25T01:24:25.220Z,5.30
2023-04-25T01:26:57.631Z,5.10
2023-04-25T01:29:27.258Z,5.40
2023-04-25T01:31:57.925Z,5.33
2023-04-25T01:34:27.690Z,4.78
2023-04-25T01:36:58.838Z,4.60
2023-04-25T01:41:57.753Z,4.28
2023-04-25T01:44:27.169Z,5.03
2023-04-25T01:46:57.410Z,5.20
2023-04-25T01:49:27.432Z,4.70
2023-04-25T01:51:58.643Z,4.50
2023-04-25T01:57:00.316Z,4.07
2023-04-25T01:59:30.208Z,4.50
2023-04-25T02:02:00.034Z,5.03
2023-04-25T02:04:29.422Z,4.90
2023-04-25T02:07:00.662Z,5.82
2023-04-25T02:09:30.020Z,4.70
2023-04-25T02:12:01.080Z,4.95
2023-04-25T02:14:30.402Z,4.80
2023-04-25T02:17:00.338Z,4.75
2023-04-25T02:19:29.893Z,4.65
2023-04-25T02:22:01.061Z,4.82
2023-04-25T02:27:00.042Z,4.43
2023-04-25T02:29:29.500Z,4.35
2023-04-25T02:31:59.255Z,4.88
2023-04-25T02:34:28.690Z,4.47
2023-04-25T02:37:00.344Z,4.95
2023-04-25T02:39:29.587Z,4.63
2023-04-25T02:42:18.997Z,5.10
2023-04-25T02:44:48.556Z,4.53
2023-04-25T02:47:18.401Z,4.40
2023-04-25T02:49:48.544Z,5.00
2023-04-25T02:52:19.648Z,4.90
2023-04-25T02:54:49.034Z,4.63
2023-04-25T02:57:19.103Z,5.10
2023-04-25T02:59:48.567Z,4.90
2023-04-25T03:02:18.517Z,4.35
2023-04-25T03:04:48.098Z,5.00
2023-04-25T03:07:19.328Z,5.10
2023-04-25T03:09:48.916Z,5.03
2023-04-25T03:12:18.852Z,4.53
2023-04-25T03:14:48.632Z,4.85
2023-04-25T03:17:18.821Z,5.00
2023-04-25T03:19:48.552Z,5.65
2023-04-25T03:22:20.096Z,6.13
2023-04-25T03:24:49.549Z,5.15
2023-04-25T03:27:19.505Z,5.50
2023-04-25T03:29:48.831Z,5.80
2023-04-25T03:32:19.179Z,5.75
2023-04-25T03:34:48.519Z,5.87
2023-04-25T03:37:19.861Z,5.38
2023-04-25T03:42:18.873Z,5.10
2023-04-25T03:44:48.305Z,5.72
2023-04-25T03:47:18.319Z,5.65
2023-04-25T03:49:47.997Z,5.90
2023-04-25T03:52:19.150Z,5.93
2023-04-25T03:54:48.645Z,5.63
2023-04-25T03:57:18.423Z,6.15
2023-04-25T03:59:47.837Z,5.88
2023-04-25T04:02:17.661Z,5.65
2023-04-25T04:04:47.446Z,5.43
2023-04-25T04:07:18.818Z,4.75
2023-04-25T04:09:48.067Z,5.70
2023-04-25T04:12:17.768Z,5.45
2023-04-25T04:14:47.550Z,5.90
2023-04-25T04:17:17.297Z,5.97
2023-04-25T04:19:46.550Z,6.60
2023-04-25T04:22:16.350Z,6.22
2023-04-25T04:24:49.292Z,6.05
2023-04-25T04:27:20.419Z,6.35
2023-04-25T04:29:50.171Z,5.45
2023-04-25T04:32:20.211Z,5.47
2023-04-25T04:34:50.195Z,5.95
2023-04-25T04:37:20.277Z,6.20
2023-04-25T04:39:51.543Z,6.22
2023-04-25T04:42:22.490Z,6.75
2023-04-25T04:44:53.533Z,5.43
2023-04-25T04:47:25.003Z,5.68
2023-04-25T04:49:54.294Z,5.85
2023-04-25T04:52:24.376Z,5.68
2023-04-25T04:54:55.221Z,5.60
2023-04-25T04:57:24.874Z,4.93
2023-04-25T04:59:54.748Z,5.18
2023-04-25T05:02:24.577Z,5.00
2023-04-25T05:04:54.167Z,5.20
2023-04-25T05:07:23.939Z,5.45
2023-04-25T05:09:54.833Z,4.78
2023-04-25T05:12:24.401Z,5.13
2023-04-25T05:14:53.830Z,5.15
2023-04-25T05:17:23.711Z,5.47
2023-04-25T05:19:53.044Z,4.75
2023-04-25T05:22:22.685Z,5.15
2023-04-25T05:24:55.199Z,5.20
2023-04-25T05:27:27.220Z,4.40
2023-04-25T05:29:56.535Z,4.63
2023-04-25T05:32:27.502Z,4.93
2023-04-25T05:34:57.119Z,4.78
2023-04-25T05:37:27.468Z,4.75
2023-04-25T05:39:56.796Z,5.07
2023-04-25T05:42:28.002Z,4.57
2023-04-25T05:44:57.505Z,5.20
2023-04-25T05:47:27.204Z,4.90
2023-04-25T05:49:56.621Z,4.45
2023-04-25T05:52:26.781Z,4.18
2023-04-25T05:54:56.365Z,4.35
2023-04-25T05:57:29.558Z,4.00
2023-04-25T05:59:58.949Z,4.65
2023-04-25T06:02:28.973Z,5.00
2023-04-25T06:04:59.168Z,4.40
2023-04-25T06:07:28.974Z,4.25
2023-04-25T06:09:58.227Z,4.78
2023-04-25T06:12:29.804Z,4.88
2023-04-25T06:14:59.040Z,4.22
2023-04-25T06:17:28.917Z,3.97
2023-04-25T06:19:58.900Z,3.30
2023-04-25T06:22:29.016Z,3.67
2023-04-25T06:25:00.272Z,3.67
2023-04-25T06:27:31.583Z,4.00
2023-04-25T06:30:01.102Z,3.33
2023-04-25T06:32:31.444Z,3.38
2023-04-25T06:35:01.162Z,3.72
2023-04-25T06:37:31.643Z,4.13
2023-04-25T06:40:00.868Z,3.50
2023-04-25T06:42:31.934Z,3.85
2023-04-25T06:45:01.240Z,4.70
2023-04-25T06:47:31.796Z,4.10
2023-04-25T06:50:01.184Z,3.90
2023-04-25T06:52:31.165Z,5.13
2023-04-25T06:55:00.664Z,4.30
2023-04-25T06:57:31.950Z,3.80
2023-04-25T07:00:02.423Z,4.57
2023-04-25T07:02:32.542Z,4.00
2023-04-25T07:05:01.953Z,3.92
2023-04-25T07:07:31.758Z,3.80
2023-04-25T07:10:01.069Z,4.22
2023-04-25T07:12:32.369Z,3.63
2023-04-25T07:17:37.074Z,2.85
2023-04-25T07:20:09.043Z,2.60
2023-04-25T07:22:39.185Z,2.70
2023-04-25T07:25:09.884Z,2.70
2023-04-25T07:27:41.220Z,3.15
2023-04-25T07:30:11.800Z,2.72
2023-04-25T07:35:11.648Z,2.85
2023-04-25T07:37:41.315Z,2.40
2023-04-25T07:40:12.394Z,1.83
2023-04-25T07:42:43.620Z,1.77
2023-04-25T07:47:42.944Z,2.08
2023-04-25T07:50:12.893Z,2.20
2023-04-25T07:52:42.704Z,1.95
2023-04-25T07:55:12.660Z,2.22
2023-04-25T07:57:43.424Z,1.90
2023-04-25T08:00:14.454Z,2.40
2023-04-25T08:02:43.920Z,1.88
2023-04-25T08:05:16.346Z,2.08
2023-04-25T08:07:46.664Z,2.28
2023-04-25T08:10:16.865Z,1.75
2023-04-25T08:12:47.587Z,1.67
2023-04-25T08:15:17.314Z,1.65
2023-04-25T08:17:46.760Z,1.98
2023-04-25T08:20:16.474Z,1.40
2023-04-25T08:22:45.873Z,1.50
2023-04-25T08:25:15.797Z,1.33
2023-04-25T08:27:46.592Z,1.55
2023-04-25T08:30:17.234Z,1.10
2023-04-25T08:32:46.566Z,1.40
2023-04-25T08:35:17.794Z,1.10
2023-04-25T08:37:47.107Z,1.45
2023-04-25T08:40:18.473Z,1.15
2023-04-25T08:42:51.575Z,1.60
2023-04-25T08:45:22.280Z,1.20
2023-04-25T08:47:55.212Z,1.25
2023-04-25T08:50:27.572Z,1.23
2023-04-25T08:52:59.875Z,1.60
2023-04-25T08:55:30.460Z,1.45
2023-04-25T08:58:02.009Z,0.90
2023-04-25T09:00:31.797Z,1.23
2023-04-25T09:03:02.114Z,1.38
2023-04-25T09:05:32.543Z,1.20
2023-04-25T09:08:02.726Z,1.10
2023-04-25T09:13:11.996Z,1.45
2023-04-25T09:15:52.695Z,1.60
2023-04-25T09:18:30.968Z,2.13
2023-04-25T09:21:13.704Z,1.85
2023-04-25T09:23:46.506Z,7.32
2023-04-25T09:26:18.166Z,2.08
2023-04-25T09:28:49.557Z,1.48
2023-04-25T09:31:25.893Z,2.10
2023-04-25T09:34:03.250Z,1.50
2023-04-25T09:36:33.975Z,1.23
2023-04-25T09:39:04.999Z,1.03
2023-04-25T09:41:39.904Z,1.45
2023-04-25T09:44:10.824Z,1.30
2023-04-25T09:46:41.038Z,1.15
2023-04-25T09:49:10.789Z,1.40
2023-04-25T09:51:40.952Z,1.00
2023-04-25T09:54:10.462Z,1.45
2023-04-25T09:56:40.614Z,1.38
2023-04-25T09:59:13.052Z,1.80
2023-04-25T10:01:45.938Z,1.25
2023-04-25T10:04:17.268Z,1.13
2023-04-25T10:06:48.502Z,1.27
2023-04-25T10:09:19.893Z,1.60
2023-04-25T10:11:50.464Z,1.30
2023-04-25T10:14:21.897Z,1.35
2023-04-25T10:16:55.062Z,1.10
2023-04-25T10:19:24.783Z,2.08
2023-04-25T10:21:58.233Z,1.25
2023-04-25T10:24:28.624Z,1.60
2023-04-25T10:29:29.959Z,0.80
2023-04-25T10:32:00.331Z,1.40
2023-04-25T10:34:42.839Z,1.00
2023-04-25T10:37:13.075Z,0.88
2023-04-25T10:39:44.232Z,0.85
2023-04-25T10:42:14.797Z,0.68
2023-04-25T10:45:05.535Z,0.93
2023-04-25T10:47:38.908Z,1.33
2023-04-25T10:50:10.373Z,1.20
2023-04-25T10:52:42.464Z,1.13
2023-04-25T10:55:12.060Z,1.40
2023-04-25T10:57:43.583Z,1.33
2023-04-25T11:00:25.882Z,1.33
2023-04-25T11:03:02.325Z,1.00
2023-04-25T11:05:41.072Z,1.20
2023-04-25T11:08:23.750Z,1.42
2023-04-25T11:10:53.939Z,1.60
2023-04-25T11:13:23.647Z,1.30
2023-04-25T11:16:07.087Z,1.50
2023-04-25T11:18:44.670Z,1.27
2023-04-25T11:21:14.317Z,1.48
2023-04-25T11:23:47.332Z,1.33
2023-04-25T11:26:17.783Z,1.40
2023-04-25T11:28:48.367Z,1.70
2023-04-25T11:31:23.741Z,1.50
2023-04-25T11:33:53.515Z,1.17
2023-04-25T11:36:27.542Z,1.02
2023-04-25T11:38:57.207Z,1.42
2023-04-25T11:41:28.799Z,1.30
2023-04-25T11:43:58.656Z,1.83
2023-04-25T11:46:30.006Z,2.38
2023-04-25T11:49:00.515Z,1.48
2023-04-25T11:51:29.777Z,1.75
2023-04-25T11:53:59.548Z,1.77
2023-04-25T11:56:29.322Z,1.30
2023-04-25T11:59:00.663Z,2.05
2023-04-25T12:01:35.479Z,1.40
2023-04-25T12:04:17.093Z,1.70
2023-04-25T12:06:49.453Z,2.40
2023-04-25T12:09:20.741Z,2.17
2023-04-25T12:14:30.907Z,2.05
2023-04-25T12:17:03.197Z,1.60
2023-04-25T12:19:36.361Z,1.35
2023-04-25T12:22:06.854Z,1.50
2023-04-25T12:24:39.283Z,1.60
2023-04-25T12:27:10.490Z,1.08
2023-04-25T12:29:49.395Z,1.42
2023-04-25T12:32:20.729Z,1.92
2023-04-25T12:34:50.400Z,2.00
2023-04-25T12:37:19.686Z,1.55
2023-04-25T12:39:49.501Z,2.22
2023-04-25T12:42:18.816Z,1.90
2023-04-25T12:44:48.939Z,1.60
2023-04-25T12:47:19.847Z,1.92
2023-04-25T12:49:50.038Z,1.67
2023-04-25T12:52:19.291Z,1.88
2023-04-25T12:54:48.936Z,2.72
2023-04-25T12:57:18.590Z,2.03
2023-04-25T12:59:48.541Z,2.22
2023-04-25T13:02:18.203Z,2.53
2023-04-25T13:04:49.999Z,2.85
2023-04-25T13:09:48.947Z,3.75
2023-04-25T13:12:18.469Z,2.65
2023-04-25T13:14:48.315Z,2.15
2023-04-25T13:17:17.574Z,4.03
2023-04-25T13:19:48.809Z,2.67
2023-04-25T13:24:48.247Z,2.17
2023-04-25T13:27:17.559Z,2.90
2023-04-25T13:29:47.675Z,2.70
2023-04-25T13:32:17.112Z,2.35
2023-04-25T13:34:49.007Z,2.40
2023-04-25T13:37:18.233Z,2.42
2023-04-25T13:39:48.335Z,2.50
2023-04-25T13:42:18.510Z,2.88
2023-04-25T13:44:48.104Z,2.35
2023-04-25T13:47:17.567Z,2.20
2023-04-25T13:49:48.799Z,2.35
2023-04-25T13:54:47.522Z,3.35
2023-04-25T13:57:17.373Z,2.05
2023-04-25T13:59:47.317Z,2.60
2023-04-25T14:02:16.738Z,1.90
2023-04-25T14:04:46.526Z,2.17
2023-04-25T14:07:19.251Z,2.50
2023-04-25T14:09:48.891Z,3.05
2023-04-25T14:12:20.426Z,2.05
2023-04-25T14:14:50.437Z,1.98
2023-04-25T14:17:19.663Z,1.90
2023-04-25T14:19:49.452Z,2.20
2023-04-25T14:22:20.780Z,2.03
2023-04-25T14:24:50.960Z,2.42
2023-04-25T14:27:20.366Z,2.33
2023-04-25T14:29:50.366Z,2.10
2023-04-25T14:32:19.777Z,2.05
2023-04-25T14:34:49.416Z,2.17
2023-04-25T14:37:20.300Z,3.00
2023-04-25T14:39:49.895Z,2.75
2023-04-25T14:42:19.405Z,2.97
2023-04-25T14:44:49.193Z,3.10
2023-04-25T14:47:18.983Z,3.30
2023-04-25T14:49:55.284Z,3.25
2023-04-25T14:52:26.840Z,3.45
2023-04-25T14:54:56.756Z,3.40
2023-04-25T14:57:26.321Z,3.30
2023-04-25T14:59:56.103Z,3.50
2023-04-25T15:02:26.360Z,5.07
2023-04-25T15:04:57.421Z,4.13
2023-04-25T15:07:28.259Z,3.72
2023-04-25T15:09:58.111Z,3.33
2023-04-25T15:12:29.570Z,2.97
2023-04-25T15:14:59.592Z,3.97
2023-04-25T15:17:32.306Z,3.22
2023-04-25T15:20:02.359Z,2.63
2023-04-25T15:22:33.358Z,3.47
2023-04-25T15:25:02.999Z,3.88
2023-04-25T15:27:32.863Z,3.85
2023-04-25T15:30:03.680Z,4.15
2023-04-25T15:32:33.348Z,3.05
2023-04-25T15:35:08.779Z,3.70
2023-04-25T15:37:40.059Z,3.42
2023-04-25T15:40:12.412Z,3.83
2023-04-25T15:42:43.478Z,3.08
2023-04-25T15:45:14.915Z,3.28
2023-04-25T15:47:44.174Z,3.60
2023-04-25T15:50:15.121Z,3.33
2023-04-25T15:52:46.564Z,3.67
2023-04-25T15:55:17.763Z,3.30
2023-04-25T15:57:48.088Z,3.90
2023-04-25T16:00:19.643Z,3.30
2023-04-25T16:02:49.849Z,3.03
2023-04-25T16:05:20.022Z,2.97
2023-04-25T16:07:54.046Z,3.00
2023-04-25T16:10:24.162Z,3.72
2023-04-25T16:12:53.958Z,3.78
2023-04-25T16:15:23.641Z,4.22
2023-04-25T16:17:53.032Z,3.53
2023-04-25T16:20:22.929Z,3.88
2023-04-25T16:22:53.728Z,4.35
2023-04-25T16:25:24.124Z,5.05
2023-04-25T16:27:53.623Z,2.77
2023-04-25T16:30:23.716Z,3.08
2023-04-25T16:32:53.035Z,3.47
2023-04-25T16:35:23.763Z,3.80
2023-04-25T16:37:54.765Z,3.72
2023-04-25T16:40:24.408Z,4.03
2023-04-25T16:42:53.631Z,3.75
2023-04-25T16:45:24.721Z,6.25
2023-04-25T16:47:54.080Z,3.22
2023-04-25T16:50:24.038Z,3.92
2023-04-25T16:52:55.140Z,3.53
2023-04-25T16:55:24.852Z,3.80
2023-04-25T16:57:54.432Z,3.67
2023-04-25T17:00:25.482Z,3.97
2023-04-25T17:02:55.524Z,3.95
2023-04-25T17:05:26.729Z,3.72
2023-04-25T17:07:58.313Z,3.70
2023-04-25T17:10:28.580Z,3.92
2023-04-25T17:12:57.899Z,3.78
2023-04-25T17:15:27.777Z,4.22
2023-04-25T17:17:57.627Z,4.18
2023-04-25T17:20:27.478Z,4.00
2023-04-25T17:22:58.716Z,3.10
2023-04-25T17:25:28.630Z,3.40
2023-04-25T17:27:58.022Z,3.75
2023-04-25T17:30:28.462Z,3.00
2023-04-25T17:32:57.919Z,3.33
2023-04-25T17:35:28.428Z,3.72
2023-04-25T17:37:59.693Z,2.72
2023-04-25T17:40:29.531Z,2.92
2023-04-25T17:42:59.462Z,3.47
2023-04-25T17:45:34.901Z,2.70
2023-04-25T17:48:04.753Z,3.85
2023-04-25T17:50:34.796Z,3.03
2023-04-25T17:53:05.938Z,3.72
2023-04-25T17:55:35.661Z,3.25
2023-04-25T17:58:05.204Z,3.20
2023-04-25T18:00:35.496Z,2.83
2023-04-25T18:03:05.207Z,4.07
2023-04-25T18:05:36.116Z,2.80
2023-04-25T18:08:07.377Z,3.00
2023-04-25T18:10:37.502Z,3.33
2023-04-25T18:13:09.443Z,2.60
2023-04-25T18:15:39.675Z,2.50
2023-04-25T18:18:15.556Z,3.33
2023-04-25T18:20:46.995Z,2.97
2023-04-25T18:23:18.078Z,3.15
2023-04-25T18:25:52.130Z,2.35
2023-04-25T18:28:22.448Z,3.10
2023-04-25T18:30:52.202Z,3.92
2023-04-25T18:33:22.361Z,2.90
2023-04-25T18:38:35.477Z,3.10
2023-04-25T18:41:33.757Z,2.85
2023-04-25T18:43:58.783Z,2.75
2023-04-25T18:46:29.524Z,2.42
2023-04-25T18:48:58.937Z,3.23
2023-04-25T18:51:29.633Z,3.63
2023-04-25T18:54:01.292Z,2.45
2023-04-25T18:56:31.060Z,2.95
2023-04-25T18:59:00.811Z,2.35
2023-04-25T19:01:30.881Z,2.40
2023-04-25T19:04:01.667Z,3.28
2023-04-25T19:06:33.119Z,3.60
2023-04-25T19:09:04.078Z,3.33
2023-04-25T19:11:33.921Z,2.70
2023-04-25T19:14:03.815Z,3.28
2023-04-25T19:16:39.272Z,2.63
2023-04-25T19:19:10.191Z,2.42
2023-04-25T19:24:11.549Z,3.05
2023-04-25T19:26:41.742Z,2.72
2023-04-25T19:29:12.462Z,3.50
2023-04-25T19:31:43.240Z,2.65
2023-04-25T19:34:13.240Z,3.17
2023-04-25T19:36:44.389Z,6.50
2023-04-25T19:39:15.157Z,2.90
2023-04-25T19:41:45.722Z,3.80
2023-04-25T19:44:15.270Z,3.47
2023-04-25T19:46:46.922Z,3.30
2023-04-25T19:49:16.608Z,2.85
2023-04-25T19:51:47.083Z,2.80
2023-04-25T19:54:18.203Z,2.42
2023-04-25T19:56:49.028Z,2.53
2023-04-25T19:59:18.317Z,2.33
2023-04-25T20:01:48.149Z,2.50
2023-04-25T20:04:18.535Z,4.57
2023-04-25T20:06:48.289Z,2.92
2023-04-25T20:09:21.128Z,3.30
2023-04-25T20:11:51.319Z,2.80
2023-04-25T20:14:20.589Z,2.38
2023-04-25T20:16:50.465Z,2.63
2023-04-25T20:19:20.452Z,3.78
2023-04-25T20:21:50.123Z,4.20
2023-04-25T20:24:21.119Z,4.15
2023-04-25T20:26:50.981Z,3.25
2023-04-25T20:29:20.881Z,4.13
2023-04-25T20:31:52.101Z,3.20
2023-04-25T20:36:52.464Z,3.55
2023-04-25T20:39:23.398Z,3.33
2023-04-25T20:41:53.177Z,3.20
2023-04-25T20:44:23.774Z,3.05
2023-04-25T20:49:23.085Z,3.03
2023-04-25T20:51:52.926Z,3.30
2023-04-25T20:54:24.373Z,3.33
2023-04-25T20:56:54.170Z,4.63
2023-04-25T20:59:23.661Z,4.47
2023-04-25T21:01:54.736Z,3.00
2023-04-25T21:04:24.269Z,2.50
2023-04-25T21:06:54.284Z,4.10
2023-04-25T21:09:25.071Z,4.57
2023-04-25T21:11:55.024Z,3.17
2023-04-25T21:14:25.736Z,3.90
2023-04-25T21:19:24.581Z,3.97
2023-04-25T21:21:54.510Z,3.58
2023-04-25T21:24:27.190Z,3.90
2023-04-25T21:26:56.921Z,3.70
2023-04-25T21:29:26.300Z,3.50
2023-04-25T21:31:56.927Z,4.10
2023-04-25T21:34:27.079Z,3.28
2023-04-25T21:36:56.725Z,4.13
2023-04-25T21:39:27.809Z,3.58
2023-04-25T21:41:57.994Z,4.70
2023-04-25T21:44:29.079Z,3.22
2023-04-25T21:46:58.738Z,2.85
2023-04-25T21:49:30.124Z,2.95
2023-04-25T21:52:00.145Z,2.78
2023-04-25T21:54:31.003Z,3.50
2023-04-25T21:57:00.807Z,2.88
2023-04-25T21:59:30.203Z,4.20
2023-04-25T22:01:59.954Z,3.75
2023-04-25T22:04:29.551Z,3.33
2023-04-25T22:06:59.625Z,3.55
2023-04-25T22:09:31.935Z,3.00
2023-04-25T22:12:03.882Z,3.63
2023-04-25T22:14:33.266Z,3.78
2023-04-25T22:17:03.215Z,3.47
2023-04-25T22:19:32.781Z,3.15
2023-04-25T22:22:03.140Z,2.13
2023-04-25T22:24:34.100Z,2.75
2023-04-25T22:27:04.114Z,2.75
2023-04-25T22:29:33.626Z,2.70
2023-04-25T22:32:03.501Z,3.10
2023-04-25T22:34:32.998Z,3.15
2023-04-25T22:37:02.729Z,2.72
2023-04-25T22:39:33.613Z,4.13
2023-04-25T22:42:03.747Z,3.72
2023-04-25T22:44:33.187Z,2.67
2023-04-25T22:47:03.172Z,3.58
2023-04-25T22:49:32.426Z,2.80
2023-04-25T22:52:04.420Z,2.97
2023-04-25T22:54:35.556Z,2.63
2023-04-25T22:57:08.808Z,2.63
2023-04-25T22:59:38.466Z,2.40
2023-04-25T23:02:09.625Z,2.50
2023-04-25T23:04:39.016Z,2.22
2023-04-25T23:07:08.726Z,2.67
2023-04-25T23:09:39.502Z,2.70
2023-04-25T23:12:09.382Z,2.95
2023-04-25T23:14:39.413Z,3.95
2023-04-25T23:17:09.501Z,3.30
2023-04-25T23:19:39.708Z,2.30
2023-04-25T23:22:09.727Z,2.45
2023-04-25T23:24:40.896Z,2.97
2023-04-25T23:27:10.841Z,2.60
2023-04-25T23:29:40.901Z,3.50
2023-04-25T23:32:10.965Z,3.53
2023-04-25T23:34:40.275Z,3.42
2023-04-25T23:37:10.515Z,2.95
2023-04-25T23:39:41.823Z,2.58
2023-04-25T23:42:11.921Z,2.80
2023-04-25T23:44:41.348Z,3.35
2023-04-25T23:47:13.373Z,2.42
2023-04-25T23:49:42.862Z,2.15
2023-04-25T23:52:13.421Z,2.45
2023-04-25T23:54:44.237Z,3.13
2023-04-25T23:57:14.146Z,2.50
2023-04-25T23:59:45.259Z,3.88
